createdAt,value
2022-08-23T00:00:46.671Z,9.65
2022-08-23T00:02:51.642Z,10.02
2022-08-23T00:07:12.555Z,9.93
2022-08-23T00:09:14.153Z,10.60
2022-08-23T00:11:26.091Z,11.88
2022-08-23T00:13:27.602Z,11.20
2022-08-23T00:15:49.139Z,11.60
2022-08-23T00:17:50.838Z,11.20
2022-08-23T00:19:52.306Z,13.13
2022-08-23T00:21:54.835Z,12.13
2022-08-23T00:23:56.686Z,11.88
2022-08-23T00:26:01.763Z,11.88
2022-08-23T00:28:04.027Z,11.98
2022-08-23T00:30:14.975Z,12.02
2022-08-23T00:32:18.999Z,12.10
2022-08-23T00:34:21.948Z,11.90
2022-08-23T00:36:23.703Z,11.13
2022-08-23T00:38:34.110Z,10.82
2022-08-23T00:40:36.699Z,12.45
2022-08-23T00:43:02.282Z,12.52
2022-08-23T00:45:23.393Z,11.73
2022-08-23T00:47:43.104Z,11.73
2022-08-23T00:49:48.815Z,10.57
2022-08-23T00:51:58.985Z,10.77
2022-08-23T00:54:01.779Z,9.45
2022-08-23T00:56:04.394Z,10.80
2022-08-23T00:58:05.888Z,10.00
2022-08-23T01:00:08.447Z,9.55
2022-08-23T01:02:11.076Z,9.00
2022-08-23T01:04:13.006Z,10.25
2022-08-23T01:06:26.875Z,10.98
2022-08-23T01:08:29.666Z,9.48
2022-08-23T01:10:33.177Z,9.52
2022-08-23T01:12:38.890Z,9.68
2022-08-23T01:14:44.791Z,9.57
2022-08-23T01:16:49.891Z,9.52
2022-08-23T01:18:53.816Z,9.05
2022-08-23T01:21:10.316Z,9.52
2022-08-23T01:23:20.833Z,9.18
2022-08-23T01:25:33.026Z,8.55
2022-08-23T01:27:40.987Z,9.27
2022-08-23T01:29:51.051Z,8.02
2022-08-23T01:32:00.484Z,8.75
2022-08-23T01:34:10.643Z,9.27
2022-08-23T01:36:21.957Z,10.50
2022-08-23T01:38:32.903Z,9.27
2022-08-23T01:40:45.042Z,10.00
2022-08-23T01:42:51.335Z,10.35
2022-08-23T01:44:53.426Z,10.70
2022-08-23T01:46:58.014Z,11.90
2022-08-23T01:48:59.950Z,10.75
2022-08-23T01:51:01.718Z,12.00
2022-08-23T01:53:03.441Z,11.52
2022-08-23T01:55:05.387Z,12.00
2022-08-23T01:57:12.083Z,11.55
2022-08-23T01:59:13.899Z,11.45
2022-08-23T02:01:15.528Z,12.65
2022-08-23T02:03:17.329Z,12.73
2022-08-23T02:05:19.242Z,12.75
2022-08-23T02:07:21.100Z,12.50
2022-08-23T02:09:22.707Z,11.05
2022-08-23T02:11:28.719Z,12.45
2022-08-23T02:13:30.459Z,11.88
2022-08-23T02:15:32.076Z,12.65
2022-08-23T02:17:34.983Z,11.63
2022-08-23T02:19:38.089Z,12.23
2022-08-23T02:21:40.781Z,11.95
2022-08-23T02:23:42.515Z,11.60
2022-08-23T02:25:44.388Z,11.13
2022-08-23T02:27:45.936Z,12.60
2022-08-23T02:29:47.811Z,12.18
2022-08-23T02:31:49.706Z,12.02
2022-08-23T02:33:51.660Z,11.65
2022-08-23T02:35:53.343Z,11.73
2022-08-23T02:37:55.287Z,12.60
2022-08-23T02:39:56.826Z,10.27
2022-08-23T02:41:58.323Z,11.98
2022-08-23T02:44:00.431Z,11.60
2022-08-23T02:46:04.150Z,11.05
2022-08-23T02:48:06.028Z,12.32
2022-08-23T02:50:08.206Z,12.40
2022-08-23T02:52:09.846Z,11.02
2022-08-23T02:54:11.594Z,11.05
2022-08-23T02:56:21.255Z,10.18
2022-08-23T02:58:23.752Z,9.65
2022-08-23T03:00:25.303Z,9.20
2022-08-23T03:02:26.904Z,9.55
2022-08-23T03:04:28.418Z,8.85
2022-08-23T03:06:30.289Z,12.93
2022-08-23T03:08:31.825Z,9.32
2022-08-23T03:10:33.675Z,8.93
2022-08-23T03:12:35.241Z,8.27
2022-08-23T03:14:37.986Z,8.23
2022-08-23T03:16:39.547Z,7.03
2022-08-23T03:18:41.496Z,5.97
2022-08-23T03:20:44.389Z,8.05
2022-08-23T03:22:53.318Z,7.10
2022-08-23T03:24:56.554Z,6.75
2022-08-23T03:26:58.928Z,6.63
2022-08-23T03:29:00.630Z,7.65
2022-08-23T03:31:02.729Z,8.60
2022-08-23T03:33:04.310Z,6.68
2022-08-23T03:35:11.035Z,7.05
2022-08-23T03:37:18.054Z,6.93
2022-08-23T03:39:19.499Z,7.65
2022-08-23T03:41:21.731Z,7.78
2022-08-23T03:43:23.438Z,7.70
2022-08-23T03:45:24.911Z,7.57
2022-08-23T03:47:26.398Z,6.57
2022-08-23T03:49:28.220Z,6.13
2022-08-23T03:51:30.890Z,6.50
2022-08-23T03:53:32.608Z,6.90
2022-08-23T03:55:34.211Z,7.43
2022-08-23T03:57:43.897Z,6.88
2022-08-23T03:59:45.376Z,8.13
2022-08-23T04:01:47.035Z,7.30
2022-08-23T04:03:48.784Z,6.70
2022-08-23T04:05:50.540Z,6.72
2022-08-23T04:07:52.150Z,6.53
2022-08-23T04:09:55.375Z,7.03
2022-08-23T04:11:58.026Z,6.88
2022-08-23T04:13:59.497Z,7.38
2022-08-23T04:16:03.526Z,8.02
2022-08-23T04:18:05.602Z,8.70
2022-08-23T04:20:08.293Z,9.25
2022-08-23T04:22:14.541Z,9.23
2022-08-23T04:24:18.249Z,9.23
2022-08-23T04:26:30.141Z,8.57
2022-08-23T04:28:40.158Z,9.13
2022-08-23T04:30:48.938Z,10.63
2022-08-23T04:32:57.286Z,10.77
2022-08-23T04:35:05.636Z,9.60
2022-08-23T04:37:14.786Z,10.63
2022-08-23T04:39:23.540Z,11.48
2022-08-23T04:41:50.696Z,10.68
2022-08-23T04:43:58.497Z,10.10
2022-08-23T04:46:08.223Z,10.02
2022-08-23T04:48:12.035Z,9.50
2022-08-23T04:50:13.809Z,9.77
2022-08-23T04:52:19.181Z,8.85
2022-08-23T04:54:22.793Z,9.05
2022-08-23T04:56:24.428Z,8.77
2022-08-23T04:58:25.914Z,9.30
2022-08-23T05:00:27.949Z,9.00
2022-08-23T05:02:29.943Z,7.05
2022-08-23T05:04:31.471Z,7.55
2022-08-23T05:06:33.112Z,7.03
2022-08-23T05:08:35.509Z,7.80
2022-08-23T05:10:37.071Z,7.03
2022-08-23T05:12:39.719Z,7.22
2022-08-23T05:14:41.387Z,7.43
2022-08-23T05:16:49.347Z,6.72
2022-08-23T05:18:51.025Z,6.72
2022-08-23T05:20:53.142Z,6.47
2022-08-23T05:22:54.741Z,6.05
2022-08-23T05:24:56.202Z,6.00
2022-08-23T05:26:57.754Z,6.80
2022-08-23T05:28:59.224Z,6.38
2022-08-23T05:31:02.297Z,6.13
2022-08-23T05:33:05.106Z,5.73
2022-08-23T05:35:09.799Z,6.25
2022-08-23T05:37:11.443Z,6.18
2022-08-23T05:39:13.110Z,6.03
2022-08-23T05:41:37.693Z,4.35
2022-08-23T05:43:39.661Z,5.00
2022-08-23T05:45:41.203Z,5.25
2022-08-23T05:47:46.476Z,4.95
2022-08-23T05:49:51.345Z,4.57
2022-08-23T05:51:52.911Z,4.65
2022-08-23T05:53:57.030Z,4.43
2022-08-23T05:56:08.393Z,4.35
2022-08-23T05:58:09.942Z,4.75
2022-08-23T06:00:14.567Z,4.20
2022-08-23T06:02:16.439Z,4.25
2022-08-23T06:04:18.248Z,4.18
2022-08-23T06:06:20.308Z,4.15
2022-08-23T06:08:21.907Z,4.28
2022-08-23T06:10:23.653Z,4.60
2022-08-23T06:12:25.743Z,5.05
2022-08-23T06:14:27.787Z,4.03
2022-08-23T06:16:33.958Z,4.40
2022-08-23T06:18:35.437Z,3.65
2022-08-23T06:20:37.165Z,3.70
2022-08-23T06:22:38.716Z,4.00
2022-08-23T06:24:40.407Z,3.25
2022-08-23T06:26:44.822Z,3.00
2022-08-23T06:28:50.738Z,3.05
2022-08-23T06:30:56.808Z,2.35
2022-08-23T06:32:58.440Z,2.00
2022-08-23T06:35:32.883Z,2.05
2022-08-23T06:37:22.134Z,2.15
2022-08-23T06:39:26.277Z,1.98
2022-08-23T06:41:28.443Z,2.70
2022-08-23T06:43:30.588Z,2.35
2022-08-23T06:45:35.332Z,2.10
2022-08-23T06:47:36.973Z,2.15
2022-08-23T06:49:38.714Z,2.30
2022-08-23T06:51:41.694Z,2.10
2022-08-23T06:53:43.611Z,2.10
2022-08-23T06:57:48.935Z,2.20
2022-08-23T06:59:50.647Z,2.63
2022-08-23T07:01:57.330Z,2.20
2022-08-23T07:03:59.424Z,1.90
2022-08-23T07:06:01.647Z,3.30
2022-08-23T07:08:03.247Z,2.20
2022-08-23T07:10:05.276Z,1.98
2022-08-23T07:12:07.518Z,2.33
2022-08-23T07:14:12.435Z,2.10
2022-08-23T07:16:15.676Z,1.90
2022-08-23T07:18:17.264Z,1.95
2022-08-23T07:20:19.342Z,2.50
2022-08-23T07:22:20.959Z,2.53
2022-08-23T07:24:22.968Z,2.00
2022-08-23T07:26:25.179Z,2.13
2022-08-23T07:28:26.913Z,2.67
2022-08-23T07:30:37.163Z,1.83
2022-08-23T07:32:52.423Z,1.90
2022-08-23T07:35:01.463Z,2.13
2022-08-23T07:37:15.482Z,1.83
2022-08-23T07:39:26.088Z,2.17
2022-08-23T07:41:35.655Z,2.50
2022-08-23T07:43:46.507Z,2.75
2022-08-23T07:45:59.396Z,2.10
2022-08-23T07:48:08.710Z,2.17
2022-08-23T07:50:16.190Z,2.33
2022-08-23T07:52:28.687Z,2.33
2022-08-23T07:54:48.344Z,2.00
2022-08-23T07:56:50.512Z,3.20
2022-08-23T07:58:53.374Z,2.22
2022-08-23T08:00:54.971Z,2.63
2022-08-23T08:02:56.565Z,2.35
2022-08-23T08:04:58.251Z,2.80
2022-08-23T08:07:18.360Z,3.08
2022-08-23T08:09:22.312Z,2.67
2022-08-23T08:11:30.779Z,2.88
2022-08-23T08:13:38.178Z,2.78
2022-08-23T08:15:41.215Z,3.78
2022-08-23T08:17:43.178Z,2.67
2022-08-23T08:19:45.348Z,3.63
2022-08-23T08:21:47.322Z,3.83
2022-08-23T08:23:49.944Z,3.25
2022-08-23T08:25:59.059Z,3.90
2022-08-23T08:28:01.040Z,3.85
2022-08-23T08:30:03.591Z,2.80
2022-08-23T08:32:05.273Z,2.97
2022-08-23T08:34:07.801Z,2.97
2022-08-23T08:36:09.608Z,2.92
2022-08-23T08:38:11.333Z,2.88
2022-08-23T08:40:16.824Z,2.33
2022-08-23T08:42:47.951Z,2.50
2022-08-23T08:44:57.041Z,2.10
2022-08-23T08:46:59.455Z,1.90
2022-08-23T08:49:02.019Z,1.75
2022-08-23T08:51:06.853Z,2.08
2022-08-23T08:53:22.535Z,2.47
2022-08-23T08:55:26.263Z,1.08
2022-08-23T08:57:28.695Z,0.88
2022-08-23T08:59:50.463Z,1.10
2022-08-23T09:01:52.030Z,0.75
2022-08-23T09:03:55.932Z,0.80
2022-08-23T09:08:11.086Z,0.70
2022-08-23T09:10:12.607Z,0.93
2022-08-23T09:12:16.173Z,1.00
2022-08-23T09:14:24.018Z,0.75
2022-08-23T09:16:43.533Z,0.88
2022-08-23T09:18:45.775Z,1.48
2022-08-23T09:20:48.305Z,0.60
2022-08-23T09:23:04.427Z,0.50
2022-08-23T09:25:10.408Z,0.73
2022-08-23T09:27:12.408Z,0.50
2022-08-23T09:29:20.797Z,0.52
2022-08-23T09:31:41.888Z,0.20
2022-08-23T09:33:46.085Z,0.38
2022-08-23T09:36:05.119Z,0.30
2022-08-23T09:38:23.130Z,0.30
2022-08-23T09:40:33.862Z,0.28
2022-08-23T09:42:37.293Z,0.30
2022-08-23T09:44:40.463Z,0.38
2022-08-23T09:46:43.072Z,0.20
2022-08-23T09:48:45.490Z,0.35
2022-08-23T09:50:54.663Z,0.30
2022-08-23T09:53:01.054Z,0.30
2022-08-23T09:55:07.796Z,0.10
2022-08-23T09:57:11.127Z,0.25
2022-08-23T09:59:26.774Z,0.30
2022-08-23T10:01:33.416Z,0.30
2022-08-23T10:03:39.343Z,0.40
2022-08-23T10:05:41.506Z,0.30
2022-08-23T10:07:45.783Z,0.43
2022-08-23T10:09:47.242Z,0.40
2022-08-23T10:11:48.843Z,0.20
2022-08-23T10:13:51.282Z,0.30
2022-08-23T10:16:11.470Z,0.10
2022-08-23T10:18:26.839Z,0.30
2022-08-23T10:20:46.890Z,0.50
2022-08-23T10:22:56.065Z,0.30
2022-08-23T10:25:07.723Z,0.38
2022-08-23T10:27:29.350Z,0.50
2022-08-23T10:29:41.125Z,0.50
2022-08-23T10:31:45.416Z,0.50
2022-08-23T10:33:52.254Z,0.52
2022-08-23T10:36:05.737Z,0.60
2022-08-23T10:38:19.834Z,0.52
2022-08-23T10:40:35.923Z,0.65
2022-08-23T10:42:54.232Z,0.50
2022-08-23T10:44:59.898Z,0.60
2022-08-23T10:47:11.001Z,0.70
2022-08-23T10:49:17.602Z,0.82
2022-08-23T10:51:31.904Z,0.68
2022-08-23T10:53:47.858Z,0.80
2022-08-23T10:56:10.686Z,1.00
2022-08-23T10:58:19.832Z,0.65
2022-08-23T11:00:25.532Z,0.90
2022-08-23T11:02:42.845Z,0.73
2022-08-23T11:04:50.142Z,0.82
2022-08-23T11:06:53.528Z,0.90
2022-08-23T11:08:59.363Z,0.75
2022-08-23T11:11:01.151Z,0.80
2022-08-23T11:13:20.809Z,0.88
2022-08-23T11:15:28.675Z,0.80
2022-08-23T11:17:34.418Z,0.80
2022-08-23T11:19:47.915Z,0.52
2022-08-23T11:21:50.255Z,0.68
2022-08-23T11:23:58.422Z,0.65
2022-08-23T11:26:00.127Z,0.80
2022-08-23T11:28:20.300Z,0.95
2022-08-23T11:30:36.788Z,1.05
2022-08-23T11:32:40.248Z,1.23
2022-08-23T11:37:03.192Z,1.20
2022-08-23T11:39:07.125Z,0.90
2022-08-23T11:41:14.767Z,0.60
2022-08-23T11:43:25.482Z,0.50
2022-08-23T11:45:27.044Z,0.30
2022-08-23T11:47:29.688Z,0.60
2022-08-23T11:49:39.897Z,0.30
2022-08-23T11:51:50.719Z,0.28
2022-08-23T11:54:05.741Z,0.20
2022-08-23T11:56:10.046Z,0.50
2022-08-23T11:58:17.591Z,0.22
2022-08-23T12:00:28.596Z,0.50
2022-08-23T12:02:47.520Z,0.30
2022-08-23T12:04:52.770Z,0.47
2022-08-23T12:07:01.652Z,0.20
2022-08-23T12:09:27.030Z,0.28
2022-08-23T12:11:47.162Z,0.35
2022-08-23T12:13:51.563Z,0.20
2022-08-23T12:16:16.389Z,0.35
2022-08-23T12:18:25.041Z,0.28
2022-08-23T12:20:29.374Z,0.20
2022-08-23T12:22:36.531Z,0.20
2022-08-23T12:24:44.618Z,0.20
2022-08-23T12:26:58.517Z,0.40
2022-08-23T12:31:20.144Z,0.30
2022-08-23T12:33:40.507Z,0.20
2022-08-23T12:35:49.971Z,0.30
2022-08-23T12:37:57.945Z,0.13
2022-08-23T12:40:02.319Z,0.50
2022-08-23T12:42:11.249Z,0.20
2022-08-23T12:44:17.558Z,0.40
2022-08-23T12:46:29.518Z,0.40
2022-08-23T12:48:33.055Z,0.17
2022-08-23T12:52:38.831Z,0.00
2022-08-23T12:54:41.882Z,0.20
2022-08-23T12:56:48.402Z,0.10
2022-08-23T12:58:54.782Z,0.20
2022-08-23T13:00:58.790Z,0.20
2022-08-23T13:03:03.571Z,0.30
2022-08-23T13:05:13.396Z,0.25
2022-08-23T13:07:17.527Z,0.17
2022-08-23T13:09:24.669Z,0.20
2022-08-23T13:11:27.583Z,0.10
2022-08-23T13:13:29.457Z,0.28
2022-08-23T13:16:03.857Z,0.30
2022-08-23T13:20:07.086Z,0.30
2022-08-23T13:22:09.681Z,0.28
2022-08-23T13:24:38.357Z,0.20
2022-08-23T13:26:42.013Z,0.60
2022-08-23T13:28:59.932Z,0.82
2022-08-23T13:31:06.175Z,0.32
2022-08-23T13:33:07.996Z,0.50
2022-08-23T13:35:25.182Z,0.47
2022-08-23T13:37:28.249Z,0.50
2022-08-23T13:39:31.954Z,0.50
2022-08-23T13:41:38.589Z,0.80
2022-08-23T13:43:45.049Z,0.60
2022-08-23T13:45:58.084Z,1.35
2022-08-23T13:48:03.919Z,0.70
2022-08-23T13:50:17.865Z,0.93
2022-08-23T13:54:44.953Z,0.50
2022-08-23T13:56:55.316Z,0.75
2022-08-23T13:59:01.592Z,1.00
2022-08-23T14:01:05.534Z,0.80
2022-08-23T14:07:15.250Z,0.70
2022-08-23T14:09:17.245Z,0.90
2022-08-23T14:11:19.915Z,1.25
2022-08-23T14:13:23.596Z,0.83
2022-08-23T14:17:48.406Z,0.73
2022-08-23T14:22:11.619Z,0.98
2022-08-23T14:24:13.169Z,1.00
2022-08-23T14:26:17.671Z,0.70
2022-08-23T14:28:19.464Z,0.70
2022-08-23T14:30:32.194Z,0.60
2022-08-23T14:32:34.450Z,0.82
2022-08-23T14:34:36.149Z,0.70
2022-08-23T14:36:37.702Z,0.65
2022-08-23T14:38:39.571Z,0.77
2022-08-23T14:40:45.755Z,0.65
2022-08-23T14:42:47.798Z,0.30
2022-08-23T14:44:49.955Z,0.40
2022-08-23T14:46:51.750Z,0.43
2022-08-23T14:48:53.314Z,0.40
2022-08-23T14:50:55.427Z,0.50
2022-08-23T14:52:57.142Z,0.40
2022-08-23T14:54:58.787Z,0.40
2022-08-23T14:57:00.564Z,0.35
2022-08-23T14:59:02.293Z,0.40
2022-08-23T15:01:03.995Z,0.20
2022-08-23T15:03:09.762Z,0.30
2022-08-23T15:05:12.881Z,0.32
2022-08-23T15:07:18.084Z,0.20
2022-08-23T15:09:20.064Z,0.50
2022-08-23T15:13:54.936Z,0.30
2022-08-23T15:15:57.706Z,0.30
2022-08-23T15:18:00.609Z,0.30
2022-08-23T15:20:03.075Z,0.30
2022-08-23T15:22:21.665Z,0.30
2022-08-23T15:24:23.834Z,0.40
2022-08-23T15:26:27.161Z,0.30
2022-08-23T15:28:29.871Z,0.20
2022-08-23T15:30:32.494Z,0.40
2022-08-23T15:34:36.890Z,0.70
2022-08-23T15:36:41.792Z,0.80
2022-08-23T15:38:44.183Z,0.75
2022-08-23T15:40:46.267Z,0.70
2022-08-23T15:42:47.990Z,0.75
2022-08-23T15:44:49.738Z,1.08
2022-08-23T15:46:51.208Z,1.00
2022-08-23T15:48:55.720Z,1.13
2022-08-23T15:50:58.259Z,1.30
2022-08-23T15:53:00.778Z,1.13
2022-08-23T15:55:03.908Z,1.30
2022-08-23T15:57:05.626Z,1.65
2022-08-23T15:59:08.095Z,2.08
2022-08-23T16:01:10.075Z,1.85
2022-08-23T16:03:18.409Z,2.30
2022-08-23T16:05:21.587Z,2.72
2022-08-23T16:07:23.277Z,2.83
2022-08-23T16:09:25.129Z,2.75
2022-08-23T16:11:26.677Z,3.42
2022-08-23T16:13:28.561Z,3.08
2022-08-23T16:15:30.168Z,3.10
2022-08-23T16:17:31.743Z,2.53
2022-08-23T16:19:33.451Z,2.95
2022-08-23T16:21:36.183Z,2.63
2022-08-23T16:23:40.086Z,2.83
2022-08-23T16:25:42.187Z,2.60
2022-08-23T16:27:43.749Z,2.28
2022-08-23T16:29:45.374Z,2.55
2022-08-23T16:31:47.394Z,2.08
2022-08-23T16:33:49.426Z,2.60
2022-08-23T16:35:51.054Z,2.60
2022-08-23T16:37:54.519Z,2.17
2022-08-23T16:39:56.110Z,2.55
2022-08-23T16:41:57.769Z,2.28
2022-08-23T16:43:59.427Z,2.25
2022-08-23T16:46:01.618Z,2.70
2022-08-23T16:48:04.907Z,2.63
2022-08-23T16:50:13.263Z,2.33
2022-08-23T16:52:20.700Z,2.30
2022-08-23T16:54:43.849Z,1.90
2022-08-23T16:56:51.813Z,2.88
2022-08-23T16:59:02.062Z,2.50
2022-08-23T17:01:09.884Z,2.38
2022-08-23T17:03:17.780Z,2.30
2022-08-23T17:05:28.845Z,1.92
2022-08-23T17:07:37.661Z,2.22
2022-08-23T17:09:47.632Z,1.58
2022-08-23T17:11:54.012Z,2.33
2022-08-23T17:13:56.327Z,1.67
2022-08-23T17:15:58.502Z,2.13
2022-08-23T17:18:01.155Z,1.80
2022-08-23T17:20:04.995Z,1.63
2022-08-23T17:22:08.796Z,1.48
2022-08-23T17:24:10.725Z,1.42
2022-08-23T17:26:13.106Z,1.80
2022-08-23T17:28:16.523Z,2.40
2022-08-23T17:30:19.752Z,1.70
2022-08-23T17:32:21.447Z,1.67
2022-08-23T17:34:23.055Z,1.70
2022-08-23T17:36:27.699Z,1.75
2022-08-23T17:38:29.327Z,1.35
2022-08-23T17:40:35.610Z,1.38
2022-08-23T17:42:37.699Z,1.48
2022-08-23T17:44:39.803Z,1.63
2022-08-23T17:46:42.704Z,1.65
2022-08-23T17:48:44.389Z,2.80
2022-08-23T17:50:46.742Z,2.00
2022-08-23T17:52:51.023Z,1.80
2022-08-23T17:54:54.136Z,2.08
2022-08-23T17:56:55.683Z,2.20
2022-08-23T17:58:57.310Z,2.85
2022-08-23T18:00:58.900Z,2.17
2022-08-23T18:03:00.969Z,2.33
2022-08-23T18:05:02.680Z,2.55
2022-08-23T18:07:04.742Z,2.38
2022-08-23T18:09:06.917Z,2.53
2022-08-23T18:11:08.675Z,2.20
2022-08-23T18:13:10.320Z,3.28
2022-08-23T18:15:13.274Z,2.88
2022-08-23T18:17:14.886Z,3.30
2022-08-23T18:19:16.929Z,2.65
2022-08-23T18:21:20.490Z,2.47
2022-08-23T18:23:22.001Z,2.33
2022-08-23T18:25:24.033Z,2.83
2022-08-23T18:27:44.296Z,2.60
2022-08-23T18:29:46.002Z,3.17
2022-08-23T18:31:53.063Z,2.42
2022-08-23T18:33:59.778Z,2.50
2022-08-23T18:36:02.318Z,1.90
2022-08-23T18:38:04.400Z,2.28
2022-08-23T18:40:09.708Z,2.25
2022-08-23T18:42:12.158Z,2.47
2022-08-23T18:44:13.944Z,2.50
2022-08-23T18:46:16.015Z,2.67
2022-08-23T18:48:18.796Z,4.07
2022-08-23T18:50:20.712Z,3.00
2022-08-23T18:52:22.372Z,2.90
2022-08-23T18:54:24.265Z,3.67
2022-08-23T18:56:26.451Z,3.58
2022-08-23T18:58:28.770Z,3.53
2022-08-23T19:00:31.638Z,3.90
2022-08-23T19:02:34.455Z,3.08
2022-08-23T19:04:37.187Z,3.58
2022-08-23T19:06:39.276Z,2.38
2022-08-23T19:08:40.976Z,2.22
2022-08-23T19:10:43.475Z,2.20
2022-08-23T19:12:51.863Z,2.03
2022-08-23T19:14:56.294Z,1.83
2022-08-23T19:16:58.201Z,1.60
2022-08-23T19:19:00.854Z,2.33
2022-08-23T19:21:05.468Z,1.40
2022-08-23T19:23:07.637Z,1.38
2022-08-23T19:25:09.902Z,1.75
2022-08-23T19:27:12.295Z,1.27
2022-08-23T19:29:15.151Z,1.42
2022-08-23T19:31:20.673Z,1.58
2022-08-23T19:33:23.377Z,1.33
2022-08-23T19:35:24.906Z,1.35
2022-08-23T19:37:26.644Z,1.27
2022-08-23T19:39:30.750Z,1.73
2022-08-23T19:41:33.902Z,1.75
2022-08-23T19:43:35.660Z,1.80
2022-08-23T19:45:38.669Z,1.73
2022-08-23T19:47:40.709Z,1.88
2022-08-23T19:49:42.318Z,1.75
2022-08-23T19:51:49.772Z,1.60
2022-08-23T19:54:11.313Z,2.15
2022-08-23T19:56:15.761Z,1.90
2022-08-23T19:58:19.170Z,1.75
2022-08-23T20:00:24.420Z,2.20
2022-08-23T20:02:29.172Z,2.58
2022-08-23T20:04:34.270Z,3.00
2022-08-23T20:06:38.263Z,2.60
2022-08-23T20:08:42.398Z,2.80
2022-08-23T20:10:46.649Z,3.15
2022-08-23T20:12:49.773Z,2.80
2022-08-23T20:14:52.507Z,3.50
2022-08-23T20:16:57.413Z,3.40
2022-08-23T20:18:59.971Z,3.25
2022-08-23T20:21:01.982Z,3.78
2022-08-23T20:23:22.332Z,2.90
2022-08-23T20:25:25.211Z,3.17
2022-08-23T20:27:30.780Z,3.53
2022-08-23T20:29:33.071Z,3.90
2022-08-23T20:31:36.916Z,3.13
2022-08-23T20:33:39.948Z,3.53
2022-08-23T20:35:43.893Z,3.53
2022-08-23T20:37:45.621Z,3.03
2022-08-23T20:39:47.455Z,3.38
2022-08-23T20:41:49.137Z,2.95
2022-08-23T20:43:50.988Z,4.00
2022-08-23T20:45:52.700Z,2.70
2022-08-23T20:47:54.430Z,2.45
2022-08-23T20:49:56.282Z,1.92
2022-08-23T20:51:57.931Z,2.42
2022-08-23T20:54:00.737Z,1.83
2022-08-23T20:56:02.667Z,2.47
2022-08-23T20:58:04.415Z,2.50
2022-08-23T21:00:08.581Z,2.40
2022-08-23T21:02:10.360Z,2.83
2022-08-23T21:04:12.755Z,2.45
2022-08-23T21:06:25.606Z,2.60
2022-08-23T21:08:27.424Z,2.33
2022-08-23T21:10:29.052Z,2.10
2022-08-23T21:12:31.234Z,2.15
2022-08-23T21:14:33.073Z,2.60
2022-08-23T21:16:34.779Z,2.28
2022-08-23T21:18:36.806Z,2.15
2022-08-23T21:20:38.360Z,2.13
2022-08-23T21:22:39.987Z,1.88
2022-08-23T21:24:42.106Z,1.50
2022-08-23T21:26:43.697Z,1.77
2022-08-23T21:28:45.239Z,2.10
2022-08-23T21:30:47.097Z,2.17
2022-08-23T21:32:48.665Z,1.55
2022-08-23T21:34:50.178Z,1.80
2022-08-23T21:36:52.323Z,1.52
2022-08-23T21:38:53.938Z,1.92
2022-08-23T21:40:56.402Z,1.50
2022-08-23T21:42:58.032Z,1.90
2022-08-23T21:44:59.582Z,1.77
2022-08-23T21:47:01.251Z,2.40
2022-08-23T21:49:02.914Z,1.55
2022-08-23T21:51:04.432Z,1.58
2022-08-23T21:53:06.115Z,1.40
2022-08-23T21:55:07.985Z,1.40
2022-08-23T21:57:09.837Z,1.50
2022-08-23T21:59:12.598Z,0.90
2022-08-23T22:01:14.215Z,1.25
2022-08-23T22:03:16.012Z,1.35
2022-08-23T22:05:17.594Z,1.80
2022-08-23T22:07:19.110Z,1.48
2022-08-23T22:09:25.736Z,1.42
2022-08-23T22:11:34.972Z,1.25
2022-08-23T22:13:36.942Z,1.25
2022-08-23T22:15:38.526Z,1.85
2022-08-23T22:17:40.602Z,1.60
2022-08-23T22:19:42.145Z,1.40
2022-08-23T22:21:44.933Z,1.50
2022-08-23T22:23:46.510Z,1.65
2022-08-23T22:25:48.044Z,1.30
2022-08-23T22:27:49.674Z,1.30
2022-08-23T22:29:51.479Z,1.40
2022-08-23T22:31:53.012Z,1.88
2022-08-23T22:33:54.501Z,1.73
2022-08-23T22:36:01.736Z,1.25
2022-08-23T22:38:13.673Z,1.60
2022-08-23T22:40:15.711Z,1.88
2022-08-23T22:42:17.666Z,1.42
2022-08-23T22:44:19.190Z,1.88
2022-08-23T22:46:21.190Z,1.88
2022-08-23T22:48:23.177Z,2.10
2022-08-23T22:50:24.761Z,2.17
2022-08-23T22:52:26.293Z,2.05
2022-08-23T22:54:27.864Z,2.15
2022-08-23T22:56:30.721Z,1.90
2022-08-23T22:58:32.470Z,2.20
2022-08-23T23:00:45.977Z,1.75
2022-08-23T23:02:55.937Z,1.95
2022-08-23T23:05:04.134Z,1.77
2022-08-23T23:07:13.044Z,1.42
2022-08-23T23:09:21.104Z,1.85
2022-08-23T23:11:31.013Z,2.20
2022-08-23T23:13:39.042Z,1.52
2022-08-23T23:15:49.606Z,1.63
2022-08-23T23:17:59.374Z,1.45
2022-08-23T23:20:25.433Z,1.48
2022-08-23T23:22:31.710Z,2.65
2022-08-23T23:24:36.289Z,1.65
2022-08-23T23:26:38.187Z,1.60
2022-08-23T23:28:40.743Z,1.90
2022-08-23T23:30:43.625Z,1.80
2022-08-23T23:32:45.222Z,1.73
2022-08-23T23:34:47.989Z,1.70
2022-08-23T23:36:49.537Z,1.95
2022-08-23T23:38:51.428Z,1.65
2022-08-23T23:40:53.016Z,1.60
2022-08-23T23:42:54.667Z,2.92
2022-08-23T23:44:56.193Z,2.33
2022-08-23T23:46:57.731Z,2.75
2022-08-23T23:48:59.610Z,2.78
2022-08-23T23:51:01.115Z,2.38
2022-08-23T23:53:02.649Z,3.08
2022-08-23T23:55:05.182Z,2.83
2022-08-23T23:57:07.368Z,2.90
2022-08-23T23:59:09.396Z,2.47
